createdAt,value
2023-01-20T00:02:02.393Z,4.13
2023-01-20T00:05:05.955Z,4.20
2023-01-20T00:08:08.725Z,4.88
2023-01-20T00:11:13.020Z,4.22
2023-01-20T00:14:16.302Z,4.10
2023-01-20T00:17:19.190Z,4.30
2023-01-20T00:20:24.834Z,3.90
2023-01-20T00:23:27.651Z,4.47
2023-01-20T00:26:30.521Z,4.18
2023-01-20T00:29:33.599Z,4.70
2023-01-20T00:32:44.884Z,4.60
2023-01-20T00:35:47.720Z,4.35
2023-01-20T00:38:50.927Z,4.40
2023-01-20T00:41:53.929Z,3.95
2023-01-20T00:44:56.688Z,4.60
2023-01-20T00:47:59.687Z,4.30
2023-01-20T00:51:02.831Z,4.65
2023-01-20T00:54:05.696Z,4.53
2023-01-20T00:57:08.384Z,3.85
2023-01-20T01:00:12.083Z,4.47
2023-01-20T01:03:15.385Z,4.23
2023-01-20T01:06:18.462Z,4.03
2023-01-20T01:09:22.023Z,4.18
2023-01-20T01:12:24.886Z,3.90
2023-01-20T01:15:28.439Z,3.90
2023-01-20T01:18:31.731Z,4.13
2023-01-20T01:21:34.692Z,4.13
2023-01-20T01:24:37.488Z,4.30
2023-01-20T01:27:40.255Z,4.00
2023-01-20T01:30:44.127Z,4.22
2023-01-20T01:33:46.919Z,4.43
2023-01-20T01:36:49.699Z,3.60
2023-01-20T01:39:52.563Z,4.45
2023-01-20T01:42:55.414Z,4.18
2023-01-20T01:45:58.531Z,4.10
2023-01-20T01:49:14.383Z,3.80
2023-01-20T01:52:18.873Z,3.65
2023-01-20T01:55:25.956Z,3.92
2023-01-20T01:58:33.924Z,4.13
2023-01-20T02:01:39.303Z,3.50
2023-01-20T02:04:42.947Z,3.33
2023-01-20T02:07:53.788Z,3.67
2023-01-20T02:10:56.522Z,3.78
2023-01-20T02:13:59.682Z,4.10
2023-01-20T02:17:21.193Z,4.28
2023-01-20T02:20:27.269Z,4.80
2023-01-20T02:23:38.697Z,3.80
2023-01-20T02:26:47.271Z,4.10
2023-01-20T02:30:12.503Z,3.75
2023-01-20T02:33:33.698Z,3.92
2023-01-20T02:36:51.168Z,4.03
2023-01-20T02:40:02.652Z,3.40
2023-01-20T02:43:10.650Z,4.20
2023-01-20T02:46:25.216Z,3.58
2023-01-20T02:49:46.284Z,4.05
2023-01-20T02:52:53.705Z,4.00
2023-01-20T02:55:59.592Z,3.75
2023-01-20T02:59:05.338Z,3.30
2023-01-20T03:02:19.412Z,3.55
2023-01-20T03:05:26.305Z,3.42
2023-01-20T03:08:31.920Z,3.30
2023-01-20T03:11:39.079Z,3.38
2023-01-20T03:14:41.898Z,4.05
2023-01-20T03:17:44.825Z,3.53
2023-01-20T03:20:47.660Z,4.03
2023-01-20T03:23:53.299Z,3.33
2023-01-20T03:26:56.451Z,3.65
2023-01-20T03:29:59.379Z,3.60
2023-01-20T03:33:03.525Z,3.55
2023-01-20T03:36:06.608Z,3.65
2023-01-20T03:39:09.643Z,3.43
2023-01-20T03:42:38.898Z,3.45
2023-01-20T03:45:55.184Z,3.42
2023-01-20T03:49:13.107Z,3.50
2023-01-20T03:52:46.919Z,3.22
2023-01-20T03:56:00.706Z,3.40
2023-01-20T03:59:06.971Z,3.10
2023-01-20T04:02:11.881Z,3.33
2023-01-20T04:05:14.875Z,2.95
2023-01-20T04:08:21.276Z,3.13
2023-01-20T04:11:24.511Z,3.60
2023-01-20T04:14:35.257Z,2.80
2023-01-20T04:17:38.094Z,3.55
2023-01-20T04:20:41.832Z,3.88
2023-01-20T04:23:53.103Z,3.30
2023-01-20T04:26:55.865Z,3.40
2023-01-20T04:29:58.655Z,3.42
2023-01-20T04:33:01.476Z,3.47
2023-01-20T04:36:05.130Z,2.95
2023-01-20T04:39:08.215Z,3.25
2023-01-20T04:42:11.621Z,3.07
2023-01-20T04:45:16.549Z,3.25
2023-01-20T04:48:19.418Z,3.22
2023-01-20T04:51:22.166Z,3.22
2023-01-20T04:54:25.119Z,3.22
2023-01-20T04:57:28.012Z,3.17
2023-01-20T05:00:31.014Z,2.85
2023-01-20T05:03:35.997Z,2.90
2023-01-20T05:06:42.836Z,3.33
2023-01-20T05:09:45.708Z,3.65
2023-01-20T05:12:48.647Z,3.13
2023-01-20T05:15:51.515Z,2.90
2023-01-20T05:18:54.429Z,3.28
2023-01-20T05:21:57.369Z,3.08
2023-01-20T05:25:00.469Z,3.20
2023-01-20T05:28:03.494Z,2.77
2023-01-20T05:31:06.459Z,3.28
2023-01-20T05:34:10.741Z,3.40
2023-01-20T05:37:13.504Z,2.85
2023-01-20T05:40:16.505Z,2.78
2023-01-20T05:43:19.256Z,2.67
2023-01-20T05:46:23.333Z,2.85
2023-01-20T05:49:29.389Z,2.83
2023-01-20T05:52:32.284Z,2.70
2023-01-20T05:55:35.049Z,3.00
2023-01-20T05:58:37.850Z,2.70
2023-01-20T06:01:40.871Z,3.00
2023-01-20T06:04:43.703Z,3.10
2023-01-20T06:07:46.714Z,2.60
2023-01-20T06:10:50.605Z,2.90
2023-01-20T06:13:53.415Z,2.90
2023-01-20T06:16:56.299Z,3.00
2023-01-20T06:20:00.363Z,2.78
2023-01-20T06:23:03.210Z,3.03
2023-01-20T06:26:08.958Z,2.55
2023-01-20T06:29:11.992Z,2.60
2023-01-20T06:32:14.842Z,2.85
2023-01-20T06:35:17.717Z,2.75
2023-01-20T06:38:20.540Z,2.53
2023-01-20T06:41:24.217Z,3.05
2023-01-20T06:44:29.583Z,2.43
2023-01-20T06:47:32.415Z,2.67
2023-01-20T06:50:35.607Z,2.80
2023-01-20T06:53:38.444Z,2.80
2023-01-20T06:56:41.288Z,3.20
2023-01-20T06:59:44.105Z,2.70
2023-01-20T07:02:49.977Z,2.70
2023-01-20T07:06:02.203Z,2.40
2023-01-20T07:09:07.247Z,2.50
2023-01-20T07:12:10.205Z,2.90
2023-01-20T07:15:13.123Z,2.87
2023-01-20T07:18:16.171Z,2.60
2023-01-20T07:21:19.668Z,2.33
2023-01-20T07:24:22.755Z,2.60
2023-01-20T07:27:26.427Z,2.78
2023-01-20T07:30:29.490Z,2.90
2023-01-20T07:33:33.675Z,2.67
2023-01-20T07:36:37.364Z,2.88
2023-01-20T07:40:06.328Z,3.38
2023-01-20T07:43:15.584Z,3.00
2023-01-20T07:46:19.410Z,2.50
2023-01-20T07:49:22.523Z,2.78
2023-01-20T07:52:27.910Z,3.15
2023-01-20T07:55:34.785Z,3.28
2023-01-20T07:58:41.638Z,3.47
2023-01-20T08:01:51.222Z,3.23
2023-01-20T08:04:54.443Z,3.58
2023-01-20T08:07:57.445Z,3.38
2023-01-20T08:11:01.590Z,2.85
2023-01-20T08:14:08.992Z,3.20
2023-01-20T08:17:13.420Z,3.23
2023-01-20T08:20:18.203Z,3.22
2023-01-20T08:23:22.480Z,3.03
2023-01-20T08:26:28.687Z,3.35
2023-01-20T08:29:33.787Z,3.38
2023-01-20T08:32:37.440Z,3.53
2023-01-20T08:35:40.554Z,3.17
2023-01-20T08:38:48.483Z,3.42
2023-01-20T08:42:02.307Z,2.88
2023-01-20T08:45:12.968Z,3.30
2023-01-20T08:48:19.572Z,3.10
2023-01-20T08:51:30.921Z,2.90
2023-01-20T08:54:41.595Z,3.05
2023-01-20T08:57:52.880Z,3.00
2023-01-20T09:00:57.551Z,3.38
2023-01-20T09:04:06.247Z,3.33
2023-01-20T09:07:12.713Z,2.95
2023-01-20T09:10:20.131Z,3.15
2023-01-20T09:13:23.608Z,3.00
2023-01-20T09:16:29.251Z,3.35
2023-01-20T09:19:32.661Z,3.07
2023-01-20T09:22:35.567Z,3.30
2023-01-20T09:25:38.681Z,3.17
2023-01-20T09:28:45.152Z,3.00
2023-01-20T09:31:54.138Z,3.03
2023-01-20T09:34:58.801Z,3.37
2023-01-20T09:38:22.251Z,3.60
2023-01-20T09:41:49.965Z,3.03
2023-01-20T09:45:25.030Z,2.92
2023-01-20T09:49:08.291Z,3.22
2023-01-20T09:53:08.986Z,3.60
2023-01-20T09:56:17.158Z,3.28
2023-01-20T09:59:31.859Z,2.72
2023-01-20T10:02:37.274Z,3.42
2023-01-20T10:05:41.926Z,3.45
2023-01-20T10:09:06.001Z,3.40
2023-01-20T10:12:16.291Z,3.55
2023-01-20T10:15:24.775Z,3.70
2023-01-20T10:18:46.781Z,3.88
2023-01-20T10:22:11.599Z,3.17
2023-01-20T10:25:21.224Z,3.80
2023-01-20T10:28:29.360Z,3.83
2023-01-20T10:31:38.866Z,3.42
2023-01-20T10:34:47.375Z,3.45
2023-01-20T10:37:52.998Z,3.33
2023-01-20T10:41:21.787Z,3.23
2023-01-20T10:44:29.829Z,3.30
2023-01-20T10:47:55.175Z,3.28
2023-01-20T10:51:17.462Z,3.58
2023-01-20T10:54:58.481Z,3.35
2023-01-20T10:58:32.088Z,4.70
2023-01-20T11:01:36.986Z,4.68
2023-01-20T11:04:52.051Z,5.20
2023-01-20T11:07:59.126Z,4.50
2023-01-20T11:11:19.031Z,4.80
2023-01-20T11:14:24.782Z,4.60
2023-01-20T11:17:32.201Z,4.45
2023-01-20T11:20:37.279Z,4.93
2023-01-20T11:23:53.223Z,3.97
2023-01-20T11:27:04.472Z,4.15
2023-01-20T11:30:23.806Z,3.70
2023-01-20T11:33:28.455Z,3.70
2023-01-20T11:36:31.415Z,4.63
2023-01-20T11:39:44.993Z,4.20
2023-01-20T11:42:49.726Z,3.92
2023-01-20T11:46:09.362Z,4.33
2023-01-20T11:49:17.179Z,3.90
2023-01-20T11:52:21.105Z,4.70
2023-01-20T11:55:25.000Z,3.53
2023-01-20T11:58:54.811Z,4.88
2023-01-20T12:01:58.201Z,4.23
2023-01-20T12:05:23.175Z,4.00
2023-01-20T12:08:38.380Z,3.45
2023-01-20T12:12:13.228Z,4.25
2023-01-20T12:15:23.649Z,4.03
2023-01-20T12:19:01.175Z,3.60
2023-01-20T12:22:13.122Z,4.13
2023-01-20T12:25:20.606Z,4.20
2023-01-20T12:28:33.293Z,4.43
2023-01-20T12:31:36.325Z,4.32
2023-01-20T12:34:39.326Z,4.23
2023-01-20T12:37:53.105Z,3.60
2023-01-20T12:41:02.752Z,4.60
2023-01-20T12:44:28.437Z,4.05
2023-01-20T12:48:08.338Z,4.15
2023-01-20T12:51:26.190Z,3.60
2023-01-20T12:55:10.353Z,4.18
2023-01-20T12:58:25.176Z,4.20
2023-01-20T13:02:00.949Z,4.40
2023-01-20T13:05:22.083Z,4.28
2023-01-20T13:08:36.727Z,3.87
2023-01-20T13:11:48.412Z,3.92
2023-01-20T13:14:58.912Z,4.40
2023-01-20T13:18:23.188Z,3.80
2023-01-20T13:21:26.537Z,4.10
2023-01-20T13:24:29.551Z,3.93
2023-01-20T13:27:37.592Z,3.88
2023-01-20T13:30:48.105Z,4.45
2023-01-20T13:33:51.034Z,3.83
2023-01-20T13:37:02.869Z,3.92
2023-01-20T13:40:37.860Z,4.10
2023-01-20T13:43:47.434Z,3.60
2023-01-20T13:46:50.514Z,4.10
2023-01-20T13:49:54.781Z,3.80
2023-01-20T13:52:57.707Z,3.40
2023-01-20T13:56:02.177Z,3.57
2023-01-20T13:59:07.917Z,3.97
2023-01-20T14:02:21.789Z,4.60
2023-01-20T14:05:31.162Z,4.45
2023-01-20T14:08:49.101Z,4.60
2023-01-20T14:11:54.087Z,4.30
2023-01-20T14:14:56.845Z,4.72
2023-01-20T14:18:00.392Z,4.30
2023-01-20T14:21:21.842Z,4.72
2023-01-20T14:24:27.943Z,3.92
2023-01-20T14:27:35.493Z,4.40
2023-01-20T14:30:38.643Z,5.07
2023-01-20T14:34:02.184Z,4.35
2023-01-20T14:37:24.150Z,4.72
2023-01-20T14:40:31.271Z,4.57
2023-01-20T14:43:34.050Z,4.27
2023-01-20T14:46:39.434Z,4.70
2023-01-20T14:49:43.685Z,4.40
2023-01-20T14:52:46.710Z,4.25
2023-01-20T14:56:01.843Z,4.43
2023-01-20T14:59:04.570Z,4.33
2023-01-20T15:02:18.077Z,4.18
2023-01-20T15:05:28.467Z,4.97
2023-01-20T15:08:34.275Z,3.67
2023-01-20T15:11:37.102Z,4.32
2023-01-20T15:14:55.659Z,4.53
2023-01-20T15:18:20.068Z,4.63
2023-01-20T15:21:27.470Z,4.20
2023-01-20T15:24:32.329Z,4.75
2023-01-20T15:27:36.520Z,4.25
2023-01-20T15:30:39.304Z,4.03
2023-01-20T15:33:43.097Z,4.20
2023-01-20T15:36:46.796Z,4.50
2023-01-20T15:39:49.557Z,3.97
2023-01-20T15:42:53.688Z,4.30
2023-01-20T15:45:56.620Z,3.87
2023-01-20T15:48:59.408Z,3.95
2023-01-20T15:52:02.337Z,3.75
2023-01-20T15:55:05.455Z,3.60
2023-01-20T15:58:21.772Z,3.92
2023-01-20T16:01:26.603Z,4.07
2023-01-20T16:04:31.676Z,3.88
2023-01-20T16:07:34.957Z,4.28
2023-01-20T16:10:37.843Z,4.15
2023-01-20T16:13:41.156Z,3.97
2023-01-20T16:16:44.226Z,4.13
2023-01-20T16:19:48.246Z,4.03
2023-01-20T16:22:52.119Z,4.40
2023-01-20T16:25:55.154Z,4.00
2023-01-20T16:28:59.116Z,4.55
2023-01-20T16:32:02.044Z,3.80
2023-01-20T16:35:05.344Z,3.90
2023-01-20T16:38:13.388Z,3.45
2023-01-20T16:41:21.412Z,3.90
2023-01-20T16:44:27.118Z,3.70
2023-01-20T16:47:30.136Z,3.93
2023-01-20T16:50:33.198Z,4.30
2023-01-20T16:53:36.288Z,3.50
2023-01-20T16:56:39.871Z,4.10
2023-01-20T16:59:43.046Z,4.03
2023-01-20T17:02:50.725Z,3.67
2023-01-20T17:05:54.194Z,4.07
2023-01-20T17:08:59.652Z,3.63
2023-01-20T17:12:02.642Z,4.03
2023-01-20T17:15:06.607Z,3.63
2023-01-20T17:18:10.017Z,3.97
2023-01-20T17:21:14.102Z,3.50
2023-01-20T17:24:17.313Z,4.15
2023-01-20T17:27:20.748Z,3.80
2023-01-20T17:30:26.302Z,4.10
2023-01-20T17:33:30.908Z,3.73
2023-01-20T17:36:35.201Z,4.25
2023-01-20T17:39:41.477Z,4.10
2023-01-20T17:42:46.834Z,4.05
2023-01-20T17:45:50.475Z,3.40
2023-01-20T17:48:57.616Z,3.63
2023-01-20T17:52:00.899Z,3.97
2023-01-20T17:55:05.349Z,3.85
2023-01-20T17:58:10.930Z,4.10
2023-01-20T18:01:17.581Z,4.07
2023-01-20T18:04:21.135Z,3.93
2023-01-20T18:07:24.489Z,4.00
2023-01-20T18:10:28.290Z,4.20
2023-01-20T18:13:31.923Z,3.97
2023-01-20T18:16:42.094Z,4.38
2023-01-20T18:19:47.305Z,3.63
2023-01-20T18:22:52.481Z,3.85
2023-01-20T18:25:57.106Z,3.90
2023-01-20T18:29:06.393Z,4.35
2023-01-20T18:32:10.153Z,4.18
2023-01-20T18:35:13.561Z,3.93
2023-01-20T18:38:17.740Z,3.80
2023-01-20T18:41:22.853Z,4.43
2023-01-20T18:44:27.010Z,3.85
2023-01-20T18:47:30.519Z,3.95
2023-01-20T18:50:34.921Z,3.60
2023-01-20T18:53:39.612Z,3.92
2023-01-20T18:56:43.675Z,3.90
2023-01-20T18:59:48.064Z,3.35
2023-01-20T19:02:54.125Z,4.30
2023-01-20T19:06:12.750Z,3.93
2023-01-20T19:09:18.459Z,4.25
2023-01-20T19:12:22.466Z,4.40
2023-01-20T19:15:26.411Z,3.97
2023-01-20T19:18:31.539Z,4.45
2023-01-20T19:21:37.033Z,3.83
2023-01-20T19:24:40.913Z,4.20
2023-01-20T19:27:45.187Z,3.75
2023-01-20T19:30:51.759Z,4.10
2023-01-20T19:33:56.084Z,3.88
2023-01-20T19:37:01.309Z,3.73
2023-01-20T19:40:06.945Z,3.53
2023-01-20T19:43:11.528Z,4.03
2023-01-20T19:46:19.265Z,4.43
2023-01-20T19:49:27.129Z,4.30
2023-01-20T19:52:33.031Z,3.63
2023-01-20T19:55:36.975Z,4.40
2023-01-20T19:58:42.008Z,4.18
2023-01-20T20:01:48.794Z,4.10
2023-01-20T20:04:57.187Z,3.85
2023-01-20T20:08:01.265Z,3.80
2023-01-20T20:11:05.464Z,4.00
2023-01-20T20:14:16.734Z,4.00
2023-01-20T20:17:21.689Z,3.85
2023-01-20T20:20:26.225Z,4.30
2023-01-20T20:23:30.839Z,4.53
2023-01-20T20:26:37.086Z,4.20
2023-01-20T20:29:41.067Z,4.47
2023-01-20T20:32:45.082Z,4.10
2023-01-20T20:35:50.162Z,3.90
2023-01-20T20:38:54.444Z,4.43
2023-01-20T20:41:58.803Z,4.07
2023-01-20T20:45:04.051Z,5.03
2023-01-20T20:48:10.471Z,4.38
2023-01-20T20:51:17.090Z,4.53
2023-01-20T20:54:21.242Z,4.53
2023-01-20T20:57:26.796Z,4.65
2023-01-20T21:00:31.191Z,3.85
2023-01-20T21:03:37.193Z,4.60
2023-01-20T21:06:44.600Z,4.90
2023-01-20T21:09:48.585Z,4.83
2023-01-20T21:12:52.950Z,4.90
2023-01-20T21:16:02.214Z,4.93
2023-01-20T21:19:06.913Z,4.28
2023-01-20T21:22:13.076Z,4.28
2023-01-20T21:25:20.762Z,4.20
2023-01-20T21:28:27.085Z,4.43
2023-01-20T21:31:32.025Z,4.40
2023-01-20T21:34:37.557Z,4.50
2023-01-20T21:37:41.928Z,4.70
2023-01-20T21:41:00.257Z,4.97
2023-01-20T21:44:21.811Z,4.32
2023-01-20T21:47:26.721Z,4.47
2023-01-20T21:50:52.122Z,4.93
2023-01-20T21:53:58.419Z,5.28
2023-01-20T21:57:02.003Z,4.57
2023-01-20T22:00:08.884Z,4.30
2023-01-20T22:03:14.926Z,4.90
2023-01-20T22:06:17.904Z,4.40
2023-01-20T22:09:20.757Z,4.80
2023-01-20T22:12:23.688Z,4.50
2023-01-20T22:15:26.464Z,4.72
2023-01-20T22:18:32.234Z,5.00
2023-01-20T22:21:34.979Z,4.95
2023-01-20T22:24:37.712Z,5.10
2023-01-20T22:27:40.465Z,3.93
2023-01-20T22:30:44.674Z,4.75
2023-01-20T22:33:52.123Z,4.13
2023-01-20T22:36:57.067Z,4.10
2023-01-20T22:39:59.992Z,4.18
2023-01-20T22:43:02.963Z,4.13
2023-01-20T22:46:06.625Z,4.20
2023-01-20T22:49:09.837Z,4.25
2023-01-20T22:52:12.907Z,4.05
2023-01-20T22:55:15.949Z,4.28
2023-01-20T22:58:18.711Z,3.93
2023-01-20T23:01:26.953Z,4.00
2023-01-20T23:04:29.787Z,4.40
2023-01-20T23:07:32.492Z,4.20
2023-01-20T23:10:47.987Z,4.40
2023-01-20T23:13:52.631Z,3.70
2023-01-20T23:16:55.432Z,4.07
2023-01-20T23:19:58.563Z,3.80
2023-01-20T23:23:01.696Z,4.30
2023-01-20T23:26:15.358Z,3.78
2023-01-20T23:29:18.389Z,4.13
2023-01-20T23:32:21.338Z,3.90
2023-01-20T23:35:24.936Z,3.95
2023-01-20T23:38:27.699Z,3.70
2023-01-20T23:41:30.547Z,3.63
2023-01-20T23:44:33.401Z,3.10
2023-01-20T23:47:36.491Z,4.05
2023-01-20T23:50:39.359Z,3.85
2023-01-20T23:53:42.281Z,3.50
2023-01-20T23:56:45.135Z,3.90
2023-01-20T23:59:48.075Z,3.70
